CPA734 WSSS-VHHH
Flight info
| Callsign | CPA734 |
|---|---|
| Flight time | 3h 13m |
| Altitude | 36000 |
| Route | VMR6A VMR M771 DUDIS/K0896F360 M771 DOSUT/N0480F380 M771 DULOP/N0480F390 Q1 CARSO/N0479F380 V551 BETTY |
| Aircraft | B77W/H-SDE1E2E3FGHIJ2J3J4J5M1RWXY/LB1D1 |
Departure
| Time | 2026-05-04 00:02 |
|---|---|
| Airport | Singapore Changi Airport (WSSS) |
Arrival
| Time | 2026-05-04 03:16 |
|---|---|
| Airport | Hong Kong International Airport (VHHH) |
| Time | Latitude | Longitude | Altitude | Speed | Heading |
|---|---|---|---|---|---|
| 2026-05-03 23:47 | 1.35127 | 103.98872 | 47 ft | 0 kts | 294° |
| 2026-05-03 23:52 | 1.35122 | 103.98880 | 47 ft | 2 kts | 315° |
| 2026-05-03 23:52 | 1.35112 | 103.98889 | 47 ft | 0 kts | 321° |
| 2026-05-03 23:53 | 1.35104 | 103.98895 | 47 ft | 2 kts | 316° |
| 2026-05-03 23:53 | 1.35096 | 103.98907 | 47 ft | 2 kts | 279° |
| 2026-05-03 23:53 | 1.35097 | 103.98922 | 47 ft | 2 kts | 241° |
| 2026-05-03 23:53 | 1.35107 | 103.98933 | 47 ft | 2 kts | 216° |
| 2026-05-03 23:54 | 1.35119 | 103.98943 | 47 ft | 2 kts | 215° |
| 2026-05-03 23:54 | 1.35128 | 103.98948 | 47 ft | 0 kts | 203° |
| 2026-05-03 23:55 | 1.35094 | 103.98933 | 47 ft | 10 kts | 202° |
| 2026-05-03 23:56 | 1.35008 | 103.98898 | 47 ft | 13 kts | 201° |
| 2026-05-03 23:56 | 1.34930 | 103.98915 | 47 ft | 12 kts | 126° |
| 2026-05-03 23:56 | 1.34896 | 103.98990 | 47 ft | 11 kts | 114° |
| 2026-05-03 23:56 | 1.34866 | 103.99059 | 47 ft | 10 kts | 113° |
| 2026-05-03 23:57 | 1.34808 | 103.99107 | 47 ft | 13 kts | 179° |
| 2026-05-03 23:57 | 1.34669 | 103.99057 | 47 ft | 27 kts | 204° |
| 2026-05-03 23:57 | 1.34494 | 103.98984 | 47 ft | 26 kts | 203° |
| 2026-05-03 23:57 | 1.34331 | 103.98916 | 47 ft | 24 kts | 203° |
| 2026-05-03 23:58 | 1.34177 | 103.98850 | 47 ft | 22 kts | 202° |
| 2026-05-03 23:58 | 1.34031 | 103.98790 | 47 ft | 22 kts | 202° |
| 2026-05-03 23:58 | 1.33886 | 103.98730 | 47 ft | 22 kts | 203° |
| 2026-05-03 23:58 | 1.33736 | 103.98666 | 47 ft | 23 kts | 203° |
| 2026-05-03 23:59 | 1.33585 | 103.98603 | 47 ft | 23 kts | 202° |
| 2026-05-03 23:59 | 1.33431 | 103.98540 | 47 ft | 23 kts | 202° |
| 2026-05-03 23:59 | 1.33297 | 103.98482 | 47 ft | 20 kts | 203° |
| 2026-05-03 23:59 | 1.33160 | 103.98425 | 47 ft | 22 kts | 202° |
| 2026-05-04 00:00 | 1.33000 | 103.98358 | 47 ft | 24 kts | 202° |
| 2026-05-04 00:00 | 1.32860 | 103.98314 | 47 ft | 13 kts | 166° |
| 2026-05-04 00:00 | 1.32831 | 103.98393 | 47 ft | 13 kts | 75° |
| 2026-05-04 00:00 | 1.32865 | 103.98480 | 47 ft | 12 kts | 59° |
| 2026-05-04 00:01 | 1.32927 | 103.98522 | 47 ft | 0 kts | 22° |
| 2026-05-04 00:02 | 1.33036 | 103.98568 | 47 ft | 58 kts | 23° |
| 2026-05-04 00:02 | 1.33725 | 103.98856 | 47 ft | 153 kts | 23° |
| 2026-05-04 00:02 | 1.34942 | 103.99384 | 327 ft | 213 kts | 25° |
| 2026-05-04 00:02 | 1.36244 | 104.00011 | 1780 ft | 207 kts | 21° |
| 2026-05-04 00:03 | 1.37530 | 104.00465 | 2880 ft | 199 kts | 20° |
| 2026-05-04 00:03 | 1.38898 | 104.00990 | 3360 ft | 224 kts | 22° |
| 2026-05-04 00:03 | 1.40389 | 104.01646 | 3998 ft | 243 kts | 25° |
| 2026-05-04 00:03 | 1.41981 | 104.02347 | 4693 ft | 259 kts | 24° |
| 2026-05-04 00:04 | 1.43641 | 104.03079 | 5570 ft | 269 kts | 23° |
| 2026-05-04 00:04 | 1.45378 | 104.03799 | 6578 ft | 272 kts | 22° |
| 2026-05-04 00:04 | 1.47124 | 104.04520 | 7559 ft | 276 kts | 21° |
| 2026-05-04 00:04 | 1.49022 | 104.04889 | 8422 ft | 284 kts | 358° |
| 2026-05-04 00:05 | 1.50952 | 104.04433 | 9332 ft | 288 kts | 337° |
| 2026-05-04 00:05 | 1.52744 | 104.03550 | 10233 ft | 294 kts | 332° |
| 2026-05-04 00:05 | 1.54593 | 104.02550 | 10862 ft | 310 kts | 332° |
| 2026-05-04 00:05 | 1.56535 | 104.01493 | 11442 ft | 328 kts | 332° |
| 2026-05-04 00:06 | 1.58609 | 104.00370 | 12051 ft | 344 kts | 332° |
| 2026-05-04 00:06 | 1.60741 | 103.99219 | 12646 ft | 360 kts | 332° |
| 2026-05-04 00:06 | 1.63010 | 103.97995 | 13239 ft | 376 kts | 332° |
| 2026-05-04 00:06 | 1.65375 | 103.96719 | 13836 ft | 391 kts | 333° |
| 2026-05-04 00:07 | 1.67816 | 103.95403 | 14455 ft | 405 kts | 333° |
| 2026-05-04 00:07 | 1.70312 | 103.94056 | 15173 ft | 414 kts | 333° |
| 2026-05-04 00:07 | 1.72885 | 103.92678 | 15971 ft | 419 kts | 335° |
| 2026-05-04 00:07 | 1.75592 | 103.91610 | 16739 ft | 422 kts | 346° |
| 2026-05-04 00:08 | 1.78514 | 103.91028 | 17464 ft | 426 kts | 356° |
| 2026-05-04 00:08 | 1.81465 | 103.90801 | 18187 ft | 431 kts | 359° |
| 2026-05-04 00:08 | 1.84482 | 103.90614 | 18883 ft | 437 kts | 358° |
| 2026-05-04 00:08 | 1.87570 | 103.90422 | 19586 ft | 442 kts | 358° |
| 2026-05-04 00:09 | 1.90632 | 103.90231 | 20284 ft | 447 kts | 358° |
| 2026-05-04 00:09 | 1.93754 | 103.90035 | 20969 ft | 451 kts | 358° |
| 2026-05-04 00:09 | 1.96942 | 103.89833 | 21607 ft | 456 kts | 358° |
| 2026-05-04 00:09 | 2.00104 | 103.89633 | 22222 ft | 461 kts | 357° |
| 2026-05-04 00:10 | 2.03341 | 103.89427 | 22877 ft | 465 kts | 357° |
| 2026-05-04 00:10 | 2.06612 | 103.89220 | 23549 ft | 469 kts | 357° |
| 2026-05-04 00:10 | 2.09848 | 103.89014 | 24190 ft | 472 kts | 357° |
| 2026-05-04 00:10 | 2.13154 | 103.88803 | 24801 ft | 477 kts | 357° |
| 2026-05-04 00:11 | 2.16486 | 103.88591 | 25411 ft | 481 kts | 357° |
| 2026-05-04 00:11 | 2.19870 | 103.88376 | 26039 ft | 485 kts | 357° |
| 2026-05-04 00:11 | 2.23267 | 103.88159 | 26651 ft | 489 kts | 357° |
| 2026-05-04 00:11 | 2.26664 | 103.87942 | 27257 ft | 492 kts | 357° |
| 2026-05-04 00:12 | 2.30096 | 103.87724 | 27865 ft | 496 kts | 357° |
| 2026-05-04 00:12 | 2.33540 | 103.87601 | 28461 ft | 498 kts | 2° |
| 2026-05-04 00:12 | 2.37004 | 103.87953 | 29045 ft | 500 kts | 11° |
| 2026-05-04 00:12 | 2.40386 | 103.88834 | 29717 ft | 500 kts | 20° |
| 2026-05-04 00:13 | 2.43559 | 103.90217 | 30570 ft | 495 kts | 29° |
| 2026-05-04 00:13 | 2.46509 | 103.91952 | 31513 ft | 490 kts | 32° |
| 2026-05-04 00:13 | 2.49391 | 103.93736 | 32391 ft | 485 kts | 32° |
| 2026-05-04 00:13 | 2.52247 | 103.95513 | 33246 ft | 482 kts | 32° |
| 2026-05-04 00:14 | 2.55082 | 103.97277 | 34039 ft | 479 kts | 32° |
| 2026-05-04 00:14 | 2.57907 | 103.99036 | 34826 ft | 477 kts | 32° |
| 2026-05-04 00:14 | 2.60711 | 104.00781 | 35592 ft | 474 kts | 32° |
| 2026-05-04 00:14 | 2.63502 | 104.02518 | 36285 ft | 471 kts | 32° |
| 2026-05-04 00:15 | 2.66331 | 104.04279 | 36843 ft | 471 kts | 32° |
| 2026-05-04 00:15 | 2.69158 | 104.06039 | 36893 ft | 473 kts | 32° |
| 2026-05-04 00:15 | 2.74763 | 104.09528 | 36891 ft | 469 kts | 32° |
| 2026-05-04 00:16 | 2.80340 | 104.13000 | 36880 ft | 471 kts | 32° |
| 2026-05-04 00:16 | 2.85921 | 104.16475 | 36870 ft | 471 kts | 32° |
| 2026-05-04 00:17 | 2.91512 | 104.19957 | 36867 ft | 470 kts | 32° |
| 2026-05-04 00:17 | 2.97060 | 104.23412 | 36867 ft | 471 kts | 32° |
| 2026-05-04 00:18 | 3.02629 | 104.26881 | 36865 ft | 469 kts | 32° |
| 2026-05-04 00:18 | 3.08215 | 104.30380 | 36867 ft | 470 kts | 33° |
| 2026-05-04 00:19 | 3.13717 | 104.33877 | 36871 ft | 470 kts | 33° |
| 2026-05-04 00:19 | 3.19311 | 104.37356 | 36868 ft | 470 kts | 32° |
| 2026-05-04 00:20 | 3.24903 | 104.40824 | 36871 ft | 471 kts | 32° |
| 2026-05-04 00:20 | 3.30467 | 104.44277 | 36875 ft | 472 kts | 32° |
| 2026-05-04 00:21 | 3.36072 | 104.47757 | 36876 ft | 472 kts | 32° |
| 2026-05-04 00:21 | 3.41661 | 104.51228 | 36883 ft | 472 kts | 33° |
| 2026-05-04 00:22 | 3.47262 | 104.54707 | 36886 ft | 472 kts | 33° |
| 2026-05-04 00:22 | 3.52855 | 104.58182 | 36888 ft | 471 kts | 33° |
| 2026-05-04 00:23 | 3.58436 | 104.61651 | 36886 ft | 472 kts | 33° |
| 2026-05-04 00:23 | 3.64021 | 104.65122 | 36888 ft | 472 kts | 33° |
| 2026-05-04 00:24 | 3.69643 | 104.68617 | 36889 ft | 473 kts | 33° |
| 2026-05-04 00:24 | 3.75245 | 104.72100 | 36890 ft | 473 kts | 33° |
| 2026-05-04 00:25 | 3.80837 | 104.75577 | 36892 ft | 472 kts | 33° |
| 2026-05-04 00:25 | 3.86448 | 104.79068 | 36889 ft | 472 kts | 33° |
| 2026-05-04 00:26 | 3.92005 | 104.82526 | 36890 ft | 473 kts | 33° |
| 2026-05-04 00:26 | 3.97615 | 104.86018 | 36889 ft | 474 kts | 33° |
| 2026-05-04 00:27 | 4.03220 | 104.89507 | 36889 ft | 473 kts | 33° |
| 2026-05-04 00:27 | 4.08856 | 104.93016 | 36888 ft | 473 kts | 33° |
| 2026-05-04 00:28 | 4.14444 | 104.96496 | 36890 ft | 473 kts | 33° |
| 2026-05-04 00:28 | 4.20043 | 104.99983 | 36889 ft | 473 kts | 33° |
| 2026-05-04 00:29 | 4.25656 | 105.03473 | 36888 ft | 474 kts | 33° |
| 2026-05-04 00:29 | 4.31249 | 105.06947 | 36889 ft | 473 kts | 33° |
| 2026-05-04 00:30 | 4.36885 | 105.10449 | 36889 ft | 474 kts | 33° |
| 2026-05-04 00:30 | 4.42484 | 105.13929 | 36888 ft | 473 kts | 33° |
| 2026-05-04 00:31 | 4.48109 | 105.17426 | 36888 ft | 473 kts | 33° |
| 2026-05-04 00:31 | 4.53705 | 105.20905 | 36888 ft | 473 kts | 33° |
| 2026-05-04 00:32 | 4.59288 | 105.24377 | 36887 ft | 473 kts | 33° |
| 2026-05-04 00:32 | 4.64911 | 105.27874 | 36887 ft | 472 kts | 33° |
| 2026-05-04 00:33 | 4.73327 | 105.33111 | 36887 ft | 473 kts | 33° |
| 2026-05-04 00:34 | 4.78923 | 105.36593 | 36888 ft | 474 kts | 33° |
| 2026-05-04 00:34 | 4.84508 | 105.40133 | 36889 ft | 473 kts | 34° |
| 2026-05-04 00:35 | 4.90034 | 105.43742 | 36887 ft | 474 kts | 34° |
| 2026-05-04 00:35 | 4.95561 | 105.47348 | 36889 ft | 473 kts | 34° |
| 2026-05-04 00:36 | 5.01084 | 105.50948 | 36893 ft | 473 kts | 34° |
| 2026-05-04 00:36 | 5.06624 | 105.54557 | 36901 ft | 473 kts | 34° |
| 2026-05-04 00:37 | 5.12177 | 105.58175 | 36901 ft | 473 kts | 34° |
| 2026-05-04 00:37 | 5.17722 | 105.61787 | 36898 ft | 474 kts | 34° |
| 2026-05-04 00:38 | 5.23276 | 105.65406 | 36894 ft | 474 kts | 34° |
| 2026-05-04 00:38 | 5.28842 | 105.69034 | 36892 ft | 474 kts | 34° |
| 2026-05-04 00:39 | 5.34379 | 105.72643 | 36890 ft | 474 kts | 34° |
| 2026-05-04 00:39 | 5.39921 | 105.76256 | 36890 ft | 474 kts | 34° |
| 2026-05-04 00:40 | 5.45462 | 105.79870 | 36890 ft | 475 kts | 34° |
| 2026-05-04 00:40 | 5.50992 | 105.83476 | 36889 ft | 474 kts | 34° |
| 2026-05-04 00:41 | 5.56558 | 105.87108 | 36890 ft | 475 kts | 34° |
| 2026-05-04 00:41 | 5.62085 | 105.90714 | 36889 ft | 474 kts | 34° |
| 2026-05-04 00:42 | 5.67664 | 105.94356 | 36889 ft | 475 kts | 34° |
| 2026-05-04 00:42 | 5.73221 | 105.97984 | 36889 ft | 475 kts | 34° |
| 2026-05-04 00:43 | 5.78767 | 106.01605 | 36889 ft | 475 kts | 34° |
| 2026-05-04 00:43 | 5.84280 | 106.05205 | 36889 ft | 474 kts | 34° |
| 2026-05-04 00:44 | 5.89849 | 106.08844 | 36888 ft | 473 kts | 34° |
| 2026-05-04 00:44 | 5.95354 | 106.12441 | 36889 ft | 474 kts | 34° |
| 2026-05-04 00:45 | 6.00944 | 106.16095 | 36888 ft | 474 kts | 34° |
| 2026-05-04 00:45 | 6.06466 | 106.19705 | 36888 ft | 475 kts | 34° |
| 2026-05-04 00:46 | 6.12001 | 106.23325 | 36887 ft | 474 kts | 34° |
| 2026-05-04 00:46 | 6.17531 | 106.26942 | 36887 ft | 473 kts | 34° |
| 2026-05-04 00:47 | 6.23056 | 106.30557 | 36887 ft | 473 kts | 34° |
| 2026-05-04 00:47 | 6.28578 | 106.34171 | 36888 ft | 473 kts | 34° |
| 2026-05-04 00:48 | 6.34101 | 106.37786 | 36887 ft | 473 kts | 34° |
| 2026-05-04 00:48 | 6.39647 | 106.41419 | 36887 ft | 472 kts | 34° |
| 2026-05-04 00:49 | 6.45167 | 106.45033 | 36886 ft | 473 kts | 34° |
| 2026-05-04 00:49 | 6.50687 | 106.48650 | 36887 ft | 473 kts | 34° |
| 2026-05-04 00:50 | 6.56225 | 106.52279 | 36886 ft | 472 kts | 34° |
| 2026-05-04 00:50 | 6.61726 | 106.55885 | 36886 ft | 473 kts | 34° |
| 2026-05-04 00:51 | 6.67254 | 106.59509 | 36890 ft | 472 kts | 34° |
| 2026-05-04 00:51 | 6.72761 | 106.63120 | 36897 ft | 472 kts | 34° |
| 2026-05-04 00:52 | 6.78295 | 106.66751 | 36908 ft | 471 kts | 34° |
| 2026-05-04 00:52 | 6.83820 | 106.70377 | 36909 ft | 473 kts | 34° |
| 2026-05-04 00:53 | 6.89334 | 106.73996 | 36909 ft | 473 kts | 34° |
| 2026-05-04 00:53 | 6.94863 | 106.77626 | 36909 ft | 473 kts | 34° |
| 2026-05-04 00:54 | 7.00388 | 106.81255 | 36909 ft | 473 kts | 34° |
| 2026-05-04 00:54 | 7.05898 | 106.84879 | 36910 ft | 472 kts | 34° |
| 2026-05-04 00:55 | 7.11423 | 106.88514 | 36911 ft | 472 kts | 34° |
| 2026-05-04 00:55 | 7.16961 | 106.92159 | 36911 ft | 473 kts | 34° |
| 2026-05-04 00:56 | 7.22470 | 106.95785 | 36909 ft | 473 kts | 34° |
| 2026-05-04 00:56 | 7.27979 | 106.99413 | 36909 ft | 473 kts | 34° |
| 2026-05-04 00:57 | 7.33506 | 107.03054 | 36910 ft | 472 kts | 34° |
| 2026-05-04 00:57 | 7.38991 | 107.06669 | 36910 ft | 472 kts | 34° |
| 2026-05-04 00:58 | 7.44496 | 107.10297 | 36900 ft | 472 kts | 34° |
| 2026-05-04 00:58 | 7.49991 | 107.13920 | 36894 ft | 472 kts | 34° |
| 2026-05-04 00:59 | 7.55525 | 107.17570 | 36890 ft | 473 kts | 34° |
| 2026-05-04 00:59 | 7.61035 | 107.21204 | 36889 ft | 473 kts | 34° |
| 2026-05-04 01:00 | 7.66530 | 107.24831 | 36888 ft | 472 kts | 34° |
| 2026-05-04 01:00 | 7.72054 | 107.28478 | 36887 ft | 473 kts | 34° |
| 2026-05-04 01:01 | 7.77537 | 107.32098 | 36887 ft | 471 kts | 34° |
| 2026-05-04 01:01 | 7.83044 | 107.35736 | 36888 ft | 473 kts | 34° |
| 2026-05-04 01:02 | 7.88542 | 107.39369 | 36887 ft | 472 kts | 34° |
| 2026-05-04 01:02 | 7.94069 | 107.43022 | 36886 ft | 471 kts | 34° |
| 2026-05-04 01:03 | 7.99561 | 107.46653 | 36887 ft | 472 kts | 34° |
| 2026-05-04 01:03 | 8.05045 | 107.50280 | 36888 ft | 472 kts | 34° |
| 2026-05-04 01:04 | 8.10556 | 107.53927 | 36891 ft | 471 kts | 34° |
| 2026-05-04 01:04 | 8.16054 | 107.57565 | 36901 ft | 471 kts | 34° |
| 2026-05-04 01:05 | 8.21535 | 107.61195 | 36903 ft | 471 kts | 34° |
| 2026-05-04 01:05 | 8.27039 | 107.64840 | 36907 ft | 473 kts | 34° |
| 2026-05-04 01:06 | 8.32536 | 107.68481 | 36912 ft | 471 kts | 34° |
| 2026-05-04 01:06 | 8.38016 | 107.72114 | 36911 ft | 471 kts | 34° |
| 2026-05-04 01:07 | 8.43501 | 107.75750 | 36911 ft | 471 kts | 34° |
| 2026-05-04 01:07 | 8.48997 | 107.79394 | 36910 ft | 470 kts | 34° |
| 2026-05-04 01:08 | 8.54479 | 107.83031 | 36910 ft | 472 kts | 34° |
| 2026-05-04 01:08 | 8.59992 | 107.86691 | 36909 ft | 473 kts | 34° |
| 2026-05-04 01:09 | 8.65466 | 107.90325 | 36910 ft | 473 kts | 34° |
| 2026-05-04 01:09 | 8.70972 | 107.93981 | 36909 ft | 472 kts | 34° |
| 2026-05-04 01:10 | 8.76487 | 107.97645 | 36909 ft | 471 kts | 34° |
| 2026-05-04 01:10 | 8.81964 | 108.01286 | 36909 ft | 471 kts | 34° |
| 2026-05-04 01:11 | 8.87457 | 108.04937 | 36909 ft | 473 kts | 34° |
| 2026-05-04 01:11 | 8.92964 | 108.08600 | 36909 ft | 472 kts | 34° |
| 2026-05-04 01:12 | 8.98458 | 108.12256 | 36907 ft | 472 kts | 34° |
| 2026-05-04 01:12 | 9.03923 | 108.15893 | 36906 ft | 472 kts | 34° |
| 2026-05-04 01:13 | 9.09428 | 108.19558 | 36907 ft | 471 kts | 34° |
| 2026-05-04 01:13 | 9.14927 | 108.23222 | 36910 ft | 472 kts | 34° |
| 2026-05-04 01:14 | 9.20406 | 108.26872 | 36910 ft | 471 kts | 34° |
| 2026-05-04 01:14 | 9.25864 | 108.30510 | 36911 ft | 472 kts | 34° |
| 2026-05-04 01:15 | 9.31372 | 108.34184 | 36913 ft | 471 kts | 34° |
| 2026-05-04 01:15 | 9.36841 | 108.37831 | 36915 ft | 470 kts | 34° |
| 2026-05-04 01:16 | 9.42338 | 108.41499 | 36918 ft | 471 kts | 34° |
| 2026-05-04 01:16 | 9.47810 | 108.45152 | 36919 ft | 472 kts | 34° |
| 2026-05-04 01:17 | 9.53294 | 108.48811 | 36918 ft | 471 kts | 34° |
| 2026-05-04 01:17 | 9.58767 | 108.52465 | 36920 ft | 471 kts | 34° |
| 2026-05-04 01:18 | 9.64282 | 108.56149 | 36923 ft | 471 kts | 34° |
| 2026-05-04 01:18 | 9.69767 | 108.59813 | 36925 ft | 471 kts | 34° |
| 2026-05-04 01:19 | 9.75225 | 108.63461 | 36926 ft | 472 kts | 34° |
| 2026-05-04 01:19 | 9.80721 | 108.67136 | 36932 ft | 472 kts | 34° |
| 2026-05-04 01:20 | 9.86238 | 108.70827 | 36931 ft | 472 kts | 34° |
| 2026-05-04 01:20 | 9.91708 | 108.74487 | 36933 ft | 473 kts | 34° |
| 2026-05-04 01:21 | 9.97188 | 108.78155 | 36931 ft | 472 kts | 34° |
| 2026-05-04 01:21 | 10.02712 | 108.81853 | 36931 ft | 473 kts | 34° |
| 2026-05-04 01:22 | 10.08207 | 108.85530 | 36931 ft | 473 kts | 34° |
| 2026-05-04 01:22 | 10.13720 | 108.89222 | 36934 ft | 474 kts | 34° |
| 2026-05-04 01:23 | 10.19213 | 108.92901 | 36933 ft | 474 kts | 34° |
| 2026-05-04 01:23 | 10.24752 | 108.96612 | 36931 ft | 475 kts | 34° |
| 2026-05-04 01:24 | 10.30248 | 109.00296 | 36930 ft | 474 kts | 34° |
| 2026-05-04 01:24 | 10.35742 | 109.03980 | 36930 ft | 475 kts | 34° |
| 2026-05-04 01:25 | 10.41276 | 109.07693 | 36929 ft | 474 kts | 34° |
| 2026-05-04 01:25 | 10.46795 | 109.11398 | 36929 ft | 474 kts | 34° |
| 2026-05-04 01:26 | 10.52305 | 109.15097 | 36930 ft | 475 kts | 34° |
| 2026-05-04 01:26 | 10.57819 | 109.18802 | 36929 ft | 475 kts | 34° |
| 2026-05-04 01:27 | 10.63334 | 109.22508 | 36925 ft | 475 kts | 34° |
| 2026-05-04 01:27 | 10.68854 | 109.26219 | 36921 ft | 475 kts | 33° |
| 2026-05-04 01:28 | 10.74398 | 109.29949 | 36922 ft | 475 kts | 34° |
| 2026-05-04 01:28 | 10.79918 | 109.33664 | 36925 ft | 476 kts | 34° |
| 2026-05-04 01:29 | 10.85466 | 109.37399 | 36929 ft | 476 kts | 34° |
| 2026-05-04 01:29 | 10.90994 | 109.41122 | 36932 ft | 475 kts | 34° |
| 2026-05-04 01:30 | 10.96477 | 109.44817 | 36936 ft | 476 kts | 33° |
| 2026-05-04 01:30 | 11.02022 | 109.48556 | 36938 ft | 477 kts | 33° |
| 2026-05-04 01:31 | 11.07553 | 109.52286 | 36940 ft | 476 kts | 33° |
| 2026-05-04 01:31 | 11.13084 | 109.56000 | 36944 ft | 476 kts | 33° |
| 2026-05-04 01:32 | 11.18677 | 109.59679 | 36940 ft | 476 kts | 33° |
| 2026-05-04 01:32 | 11.24201 | 109.63316 | 36935 ft | 474 kts | 33° |
| 2026-05-04 01:33 | 11.29794 | 109.67001 | 36940 ft | 476 kts | 33° |
| 2026-05-04 01:33 | 11.35367 | 109.70678 | 36938 ft | 475 kts | 33° |
| 2026-05-04 01:34 | 11.40922 | 109.74345 | 36939 ft | 476 kts | 33° |
| 2026-05-04 01:34 | 11.46455 | 109.77998 | 36940 ft | 475 kts | 32° |
| 2026-05-04 01:35 | 11.52023 | 109.81677 | 36940 ft | 475 kts | 32° |
| 2026-05-04 01:35 | 11.57577 | 109.85349 | 36943 ft | 475 kts | 32° |
| 2026-05-04 01:36 | 11.63147 | 109.89033 | 36944 ft | 477 kts | 32° |
| 2026-05-04 01:36 | 11.68695 | 109.92705 | 36945 ft | 476 kts | 32° |
| 2026-05-04 01:37 | 11.74267 | 109.96394 | 36948 ft | 478 kts | 32° |
| 2026-05-04 01:37 | 11.79848 | 110.00091 | 36945 ft | 477 kts | 32° |
| 2026-05-04 01:38 | 11.85412 | 110.03778 | 36939 ft | 478 kts | 32° |
| 2026-05-04 01:38 | 11.91025 | 110.07501 | 36931 ft | 479 kts | 32° |
| 2026-05-04 01:39 | 11.96628 | 110.11217 | 36932 ft | 479 kts | 32° |
| 2026-05-04 01:39 | 12.02226 | 110.14933 | 36937 ft | 479 kts | 32° |
| 2026-05-04 01:40 | 12.07790 | 110.18627 | 36936 ft | 479 kts | 32° |
| 2026-05-04 01:40 | 12.13402 | 110.22356 | 36938 ft | 480 kts | 32° |
| 2026-05-04 01:41 | 12.19014 | 110.26086 | 36942 ft | 480 kts | 32° |
| 2026-05-04 01:41 | 12.24612 | 110.29810 | 36940 ft | 480 kts | 32° |
| 2026-05-04 01:42 | 12.30207 | 110.33533 | 36943 ft | 480 kts | 32° |
| 2026-05-04 01:42 | 12.35817 | 110.37268 | 36944 ft | 479 kts | 31° |
| 2026-05-04 01:43 | 12.41358 | 110.41072 | 36942 ft | 480 kts | 33° |
| 2026-05-04 01:43 | 12.46883 | 110.44939 | 36949 ft | 481 kts | 33° |
| 2026-05-04 01:44 | 12.52418 | 110.48807 | 36948 ft | 480 kts | 32° |
| 2026-05-04 01:44 | 12.57937 | 110.52664 | 36946 ft | 480 kts | 32° |
| 2026-05-04 01:45 | 12.63452 | 110.56518 | 36946 ft | 480 kts | 32° |
| 2026-05-04 01:45 | 12.71754 | 110.62321 | 36950 ft | 481 kts | 32° |
| 2026-05-04 01:46 | 12.77285 | 110.66189 | 36946 ft | 480 kts | 32° |
| 2026-05-04 01:46 | 12.82796 | 110.70043 | 36949 ft | 480 kts | 32° |
| 2026-05-04 01:47 | 12.88332 | 110.73918 | 36948 ft | 480 kts | 32° |
| 2026-05-04 01:47 | 12.93860 | 110.77788 | 36945 ft | 480 kts | 32° |
| 2026-05-04 01:48 | 12.99394 | 110.81666 | 36949 ft | 480 kts | 32° |
| 2026-05-04 01:48 | 13.04897 | 110.85523 | 36949 ft | 480 kts | 32° |
| 2026-05-04 01:49 | 13.10411 | 110.89391 | 36950 ft | 481 kts | 32° |
| 2026-05-04 01:49 | 13.15937 | 110.93269 | 36953 ft | 480 kts | 32° |
| 2026-05-04 01:50 | 13.21462 | 110.97149 | 36949 ft | 481 kts | 32° |
| 2026-05-04 01:50 | 13.27006 | 111.01044 | 36954 ft | 481 kts | 32° |
| 2026-05-04 01:51 | 13.32533 | 111.04929 | 36952 ft | 481 kts | 32° |
| 2026-05-04 01:51 | 13.38070 | 111.08823 | 36952 ft | 481 kts | 32° |
| 2026-05-04 01:52 | 13.43619 | 111.12728 | 36952 ft | 481 kts | 32° |
| 2026-05-04 01:52 | 13.49140 | 111.16616 | 36953 ft | 481 kts | 32° |
| 2026-05-04 01:53 | 13.54658 | 111.20503 | 36953 ft | 481 kts | 32° |
| 2026-05-04 01:53 | 13.60212 | 111.24419 | 36955 ft | 482 kts | 32° |
| 2026-05-04 01:54 | 13.65738 | 111.28316 | 36952 ft | 483 kts | 32° |
| 2026-05-04 01:54 | 13.71276 | 111.32225 | 36953 ft | 482 kts | 32° |
| 2026-05-04 01:55 | 13.76802 | 111.36128 | 36951 ft | 483 kts | 32° |
| 2026-05-04 01:55 | 13.82371 | 111.40063 | 36951 ft | 483 kts | 32° |
| 2026-05-04 01:56 | 13.87921 | 111.43986 | 36953 ft | 482 kts | 32° |
| 2026-05-04 01:56 | 13.93462 | 111.47906 | 36955 ft | 484 kts | 32° |
| 2026-05-04 01:57 | 13.96274 | 111.49895 | 37154 ft | 490 kts | 32° |
| 2026-05-04 01:57 | 13.99075 | 111.51876 | 37848 ft | 486 kts | 32° |
| 2026-05-04 01:57 | 14.01831 | 111.53817 | 38710 ft | 479 kts | 32° |
| 2026-05-04 01:57 | 14.04570 | 111.55743 | 38961 ft | 481 kts | 32° |
| 2026-05-04 01:58 | 14.10094 | 111.59629 | 38952 ft | 480 kts | 31° |
| 2026-05-04 01:58 | 14.15622 | 111.63521 | 38956 ft | 480 kts | 32° |
| 2026-05-04 01:59 | 14.21134 | 111.67405 | 38950 ft | 480 kts | 32° |
| 2026-05-04 01:59 | 14.26671 | 111.71308 | 38949 ft | 481 kts | 32° |
| 2026-05-04 02:00 | 14.32195 | 111.75206 | 38950 ft | 480 kts | 32° |
| 2026-05-04 02:00 | 14.37708 | 111.79098 | 38950 ft | 480 kts | 32° |
| 2026-05-04 02:01 | 14.43247 | 111.83010 | 38950 ft | 480 kts | 32° |
| 2026-05-04 02:01 | 14.48763 | 111.86910 | 38949 ft | 479 kts | 32° |
| 2026-05-04 02:02 | 14.54265 | 111.90801 | 38952 ft | 486 kts | 32° |
| 2026-05-04 02:02 | 14.59931 | 111.94807 | 38956 ft | 497 kts | 32° |
| 2026-05-04 02:03 | 14.65700 | 111.98886 | 38966 ft | 506 kts | 32° |
| 2026-05-04 02:03 | 14.71551 | 112.03025 | 38971 ft | 512 kts | 32° |
| 2026-05-04 02:04 | 14.77426 | 112.07151 | 38970 ft | 511 kts | 32° |
| 2026-05-04 02:04 | 14.83338 | 112.11304 | 38972 ft | 512 kts | 32° |
| 2026-05-04 02:05 | 14.89220 | 112.15438 | 38971 ft | 511 kts | 32° |
| 2026-05-04 02:05 | 14.95113 | 112.19585 | 38971 ft | 511 kts | 32° |
| 2026-05-04 02:06 | 15.00981 | 112.23716 | 38972 ft | 512 kts | 32° |
| 2026-05-04 02:06 | 15.06885 | 112.27876 | 38972 ft | 513 kts | 32° |
| 2026-05-04 02:07 | 15.12783 | 112.32034 | 38974 ft | 514 kts | 32° |
| 2026-05-04 02:07 | 15.18710 | 112.36215 | 38974 ft | 514 kts | 32° |
| 2026-05-04 02:08 | 15.24597 | 112.40372 | 38974 ft | 514 kts | 32° |
| 2026-05-04 02:08 | 15.30521 | 112.44557 | 38974 ft | 514 kts | 32° |
| 2026-05-04 02:09 | 15.36432 | 112.48737 | 38973 ft | 513 kts | 32° |
| 2026-05-04 02:09 | 15.42313 | 112.52898 | 38974 ft | 513 kts | 32° |
| 2026-05-04 02:10 | 15.48228 | 112.57085 | 38974 ft | 513 kts | 32° |
| 2026-05-04 02:10 | 15.54110 | 112.61253 | 38975 ft | 514 kts | 32° |
| 2026-05-04 02:11 | 15.60022 | 112.65444 | 38974 ft | 514 kts | 33° |
| 2026-05-04 02:11 | 15.65973 | 112.69667 | 38969 ft | 515 kts | 33° |
| 2026-05-04 02:12 | 15.71866 | 112.73851 | 38970 ft | 515 kts | 33° |
| 2026-05-04 02:12 | 15.77794 | 112.78063 | 38970 ft | 515 kts | 33° |
| 2026-05-04 02:13 | 15.83725 | 112.82281 | 38970 ft | 514 kts | 33° |
| 2026-05-04 02:13 | 15.89609 | 112.86467 | 38970 ft | 513 kts | 33° |
| 2026-05-04 02:14 | 15.95512 | 112.90671 | 38970 ft | 515 kts | 32° |
| 2026-05-04 02:14 | 16.01434 | 112.94890 | 38970 ft | 515 kts | 32° |
| 2026-05-04 02:15 | 16.07352 | 112.99110 | 38971 ft | 517 kts | 32° |
| 2026-05-04 02:15 | 16.13268 | 113.03333 | 38973 ft | 516 kts | 33° |
| 2026-05-04 02:16 | 16.19206 | 113.07573 | 38974 ft | 516 kts | 32° |
| 2026-05-04 02:16 | 16.25109 | 113.11792 | 38974 ft | 515 kts | 32° |
| 2026-05-04 02:17 | 16.30998 | 113.16004 | 38975 ft | 515 kts | 32° |
| 2026-05-04 02:17 | 16.36946 | 113.20261 | 38973 ft | 517 kts | 32° |
| 2026-05-04 02:18 | 16.42921 | 113.24541 | 38972 ft | 518 kts | 32° |
| 2026-05-04 02:18 | 16.48834 | 113.28789 | 38972 ft | 518 kts | 33° |
| 2026-05-04 02:19 | 16.54781 | 113.33064 | 38976 ft | 518 kts | 32° |
| 2026-05-04 02:19 | 16.60755 | 113.37345 | 38975 ft | 518 kts | 32° |
| 2026-05-04 02:20 | 16.66672 | 113.41592 | 38974 ft | 517 kts | 32° |
| 2026-05-04 02:20 | 16.72639 | 113.45879 | 38982 ft | 519 kts | 32° |
| 2026-05-04 02:21 | 16.78598 | 113.50166 | 38987 ft | 519 kts | 32° |
| 2026-05-04 02:21 | 16.84533 | 113.54439 | 38994 ft | 519 kts | 32° |
| 2026-05-04 02:22 | 16.90470 | 113.58718 | 38998 ft | 521 kts | 32° |
| 2026-05-04 02:22 | 16.96432 | 113.63018 | 38994 ft | 521 kts | 32° |
| 2026-05-04 02:23 | 17.02407 | 113.67331 | 38989 ft | 520 kts | 32° |
| 2026-05-04 02:23 | 17.08378 | 113.71603 | 38988 ft | 520 kts | 32° |
| 2026-05-04 02:24 | 17.14375 | 113.75871 | 38993 ft | 519 kts | 32° |
| 2026-05-04 02:24 | 17.20350 | 113.80127 | 38994 ft | 520 kts | 32° |
| 2026-05-04 02:25 | 17.26347 | 113.84404 | 38997 ft | 521 kts | 32° |
| 2026-05-04 02:25 | 17.32318 | 113.88667 | 38995 ft | 521 kts | 32° |
| 2026-05-04 02:26 | 17.38327 | 113.92961 | 38991 ft | 520 kts | 32° |
| 2026-05-04 02:26 | 17.44285 | 113.97223 | 38989 ft | 521 kts | 32° |
| 2026-05-04 02:27 | 17.50267 | 114.01505 | 38991 ft | 520 kts | 32° |
| 2026-05-04 02:27 | 17.56260 | 114.05798 | 38991 ft | 519 kts | 32° |
| 2026-05-04 02:28 | 17.62242 | 114.10086 | 38993 ft | 519 kts | 32° |
| 2026-05-04 02:28 | 17.68183 | 114.14350 | 38989 ft | 521 kts | 31° |
| 2026-05-04 02:29 | 17.74160 | 114.18642 | 38991 ft | 521 kts | 32° |
| 2026-05-04 02:29 | 17.80149 | 114.22946 | 38992 ft | 521 kts | 31° |
| 2026-05-04 02:30 | 17.86107 | 114.27232 | 38993 ft | 521 kts | 31° |
| 2026-05-04 02:30 | 17.92112 | 114.31556 | 38994 ft | 521 kts | 31° |
| 2026-05-04 02:31 | 17.98076 | 114.35854 | 38996 ft | 519 kts | 31° |
| 2026-05-04 02:31 | 18.04066 | 114.40173 | 38995 ft | 521 kts | 31° |
| 2026-05-04 02:32 | 18.10003 | 114.44458 | 38997 ft | 520 kts | 31° |
| 2026-05-04 02:32 | 18.15979 | 114.48774 | 38999 ft | 521 kts | 31° |
| 2026-05-04 02:33 | 18.22073 | 114.52951 | 38994 ft | 518 kts | 24° |
| 2026-05-04 02:33 | 18.28692 | 114.55428 | 38998 ft | 510 kts | 9° |
| 2026-05-04 02:34 | 18.35636 | 114.56960 | 38999 ft | 510 kts | 8° |
| 2026-05-04 02:34 | 18.42598 | 114.58473 | 38998 ft | 510 kts | 8° |
| 2026-05-04 02:35 | 18.49574 | 114.59994 | 38999 ft | 510 kts | 8° |
| 2026-05-04 02:35 | 18.56560 | 114.61520 | 38998 ft | 510 kts | 8° |
| 2026-05-04 02:36 | 18.63500 | 114.63038 | 38997 ft | 509 kts | 8° |
| 2026-05-04 02:36 | 18.70454 | 114.64562 | 38999 ft | 510 kts | 8° |
| 2026-05-04 02:37 | 18.77411 | 114.66087 | 38989 ft | 510 kts | 8° |
| 2026-05-04 02:37 | 18.84396 | 114.67619 | 38989 ft | 511 kts | 8° |
| 2026-05-04 02:38 | 18.91348 | 114.69147 | 38989 ft | 510 kts | 8° |
| 2026-05-04 02:38 | 18.98357 | 114.70612 | 38984 ft | 507 kts | 4° |
| 2026-05-04 02:39 | 19.05343 | 114.70606 | 38994 ft | 503 kts | 352° |
| 2026-05-04 02:39 | 19.12335 | 114.70017 | 38994 ft | 503 kts | 352° |
| 2026-05-04 02:40 | 19.19312 | 114.69424 | 38996 ft | 503 kts | 352° |
| 2026-05-04 02:40 | 19.26354 | 114.68827 | 38992 ft | 503 kts | 352° |
| 2026-05-04 02:41 | 19.33354 | 114.68234 | 38997 ft | 503 kts | 352° |
| 2026-05-04 02:41 | 19.40336 | 114.67642 | 38999 ft | 504 kts | 352° |
| 2026-05-04 02:42 | 19.47308 | 114.67052 | 39000 ft | 504 kts | 352° |
| 2026-05-04 02:42 | 19.54337 | 114.66455 | 38998 ft | 504 kts | 352° |
| 2026-05-04 02:43 | 19.61312 | 114.65863 | 39003 ft | 505 kts | 352° |
| 2026-05-04 02:43 | 19.68343 | 114.65266 | 39012 ft | 506 kts | 352° |
| 2026-05-04 02:44 | 19.75373 | 114.64668 | 39019 ft | 506 kts | 352° |
| 2026-05-04 02:44 | 19.82427 | 114.64069 | 39023 ft | 506 kts | 352° |
| 2026-05-04 02:45 | 19.89423 | 114.63475 | 39027 ft | 506 kts | 352° |
| 2026-05-04 02:45 | 19.96473 | 114.62873 | 39029 ft | 506 kts | 352° |
| 2026-05-04 02:46 | 20.03509 | 114.62272 | 39032 ft | 507 kts | 352° |
| 2026-05-04 02:46 | 20.10535 | 114.61671 | 39033 ft | 507 kts | 352° |
| 2026-05-04 02:47 | 20.16670 | 114.61147 | 39031 ft | 508 kts | 352° |
| 2026-05-04 02:47 | 20.23696 | 114.60546 | 39031 ft | 508 kts | 352° |
| 2026-05-04 02:48 | 20.30750 | 114.59943 | 39028 ft | 503 kts | 352° |
| 2026-05-04 02:48 | 20.34209 | 114.59648 | 38598 ft | 495 kts | 352° |
| 2026-05-04 02:48 | 20.37627 | 114.59355 | 37869 ft | 492 kts | 352° |
| 2026-05-04 02:49 | 20.41055 | 114.59062 | 37550 ft | 482 kts | 351° |
| 2026-05-04 02:49 | 20.44350 | 114.58781 | 37124 ft | 475 kts | 351° |
| 2026-05-04 02:49 | 20.47669 | 114.58495 | 36283 ft | 477 kts | 351° |
| 2026-05-04 02:49 | 20.50949 | 114.58212 | 35206 ft | 483 kts | 351° |
| 2026-05-04 02:50 | 20.54324 | 114.57920 | 34084 ft | 489 kts | 351° |
| 2026-05-04 02:50 | 20.57736 | 114.57626 | 33003 ft | 493 kts | 351° |
| 2026-05-04 02:50 | 20.61185 | 114.57328 | 32027 ft | 496 kts | 351° |
| 2026-05-04 02:50 | 20.64630 | 114.57031 | 31111 ft | 498 kts | 351° |
| 2026-05-04 02:51 | 20.68077 | 114.56735 | 30281 ft | 498 kts | 351° |
| 2026-05-04 02:51 | 20.71554 | 114.56437 | 29595 ft | 495 kts | 351° |
| 2026-05-04 02:51 | 20.74962 | 114.56142 | 29006 ft | 489 kts | 351° |
| 2026-05-04 02:51 | 20.78324 | 114.55852 | 28445 ft | 484 kts | 350° |
| 2026-05-04 02:52 | 20.81659 | 114.55563 | 27871 ft | 480 kts | 350° |
| 2026-05-04 02:52 | 20.84963 | 114.55320 | 27294 ft | 477 kts | 354° |
| 2026-05-04 02:52 | 20.88289 | 114.55313 | 26715 ft | 475 kts | 355° |
| 2026-05-04 02:52 | 20.91589 | 114.55346 | 26124 ft | 471 kts | 356° |
| 2026-05-04 02:53 | 20.94870 | 114.55380 | 25524 ft | 467 kts | 356° |
| 2026-05-04 02:53 | 20.98074 | 114.55412 | 24940 ft | 464 kts | 356° |
| 2026-05-04 02:53 | 21.01331 | 114.55445 | 24342 ft | 460 kts | 356° |
| 2026-05-04 02:53 | 21.04522 | 114.55476 | 23743 ft | 457 kts | 356° |
| 2026-05-04 02:54 | 21.07695 | 114.55506 | 23161 ft | 454 kts | 356° |
| 2026-05-04 02:54 | 21.10827 | 114.55536 | 22568 ft | 451 kts | 356° |
| 2026-05-04 02:54 | 21.13964 | 114.55565 | 21975 ft | 448 kts | 356° |
| 2026-05-04 02:54 | 21.17031 | 114.55594 | 21394 ft | 446 kts | 356° |
| 2026-05-04 02:55 | 21.23232 | 114.55652 | 20175 ft | 441 kts | 356° |
| 2026-05-04 02:55 | 21.26289 | 114.55680 | 19573 ft | 439 kts | 356° |
| 2026-05-04 02:55 | 21.29326 | 114.55708 | 18961 ft | 437 kts | 357° |
| 2026-05-04 02:56 | 21.32364 | 114.55737 | 18353 ft | 435 kts | 357° |
| 2026-05-04 02:56 | 21.35418 | 114.55765 | 17727 ft | 433 kts | 357° |
| 2026-05-04 02:56 | 21.38387 | 114.55792 | 17126 ft | 431 kts | 357° |
| 2026-05-04 02:56 | 21.41388 | 114.55821 | 16516 ft | 428 kts | 357° |
| 2026-05-04 02:57 | 21.44366 | 114.55848 | 15891 ft | 426 kts | 357° |
| 2026-05-04 02:57 | 21.47323 | 114.55801 | 15268 ft | 421 kts | 352° |
| 2026-05-04 02:57 | 21.50170 | 114.55277 | 14660 ft | 413 kts | 342° |
| 2026-05-04 02:57 | 21.52917 | 114.54386 | 14054 ft | 409 kts | 339° |
| 2026-05-04 02:58 | 21.55603 | 114.53462 | 13456 ft | 406 kts | 339° |
| 2026-05-04 02:58 | 21.58258 | 114.52515 | 13099 ft | 393 kts | 335° |
| 2026-05-04 02:58 | 21.60631 | 114.51238 | 13054 ft | 370 kts | 324° |
| 2026-05-04 02:58 | 21.62608 | 114.49580 | 12947 ft | 352 kts | 314° |
| 2026-05-04 02:59 | 21.64343 | 114.47777 | 12672 ft | 343 kts | 312° |
| 2026-05-04 02:59 | 21.66018 | 114.45976 | 12400 ft | 335 kts | 311° |
| 2026-05-04 02:59 | 21.67631 | 114.44186 | 12121 ft | 329 kts | 311° |
| 2026-05-04 02:59 | 21.69201 | 114.42404 | 11876 ft | 329 kts | 310° |
| 2026-05-04 03:00 | 21.70761 | 114.40612 | 11648 ft | 328 kts | 310° |
| 2026-05-04 03:00 | 21.72320 | 114.38813 | 11418 ft | 327 kts | 310° |
| 2026-05-04 03:00 | 21.73851 | 114.37042 | 11201 ft | 325 kts | 310° |
| 2026-05-04 03:00 | 21.75379 | 114.35276 | 10977 ft | 317 kts | 310° |
| 2026-05-04 03:01 | 21.76856 | 114.33568 | 10769 ft | 308 kts | 310° |
| 2026-05-04 03:01 | 21.78300 | 114.31895 | 10566 ft | 301 kts | 310° |
| 2026-05-04 03:01 | 21.79707 | 114.30266 | 10366 ft | 293 kts | 310° |
| 2026-05-04 03:01 | 21.81079 | 114.28677 | 10169 ft | 286 kts | 310° |
| 2026-05-04 03:02 | 21.82396 | 114.27150 | 9980 ft | 279 kts | 310° |
| 2026-05-04 03:02 | 21.83737 | 114.25594 | 9765 ft | 273 kts | 310° |
| 2026-05-04 03:02 | 21.85014 | 114.24114 | 9558 ft | 269 kts | 310° |
| 2026-05-04 03:02 | 21.86289 | 114.22634 | 9358 ft | 270 kts | 310° |
| 2026-05-04 03:03 | 21.87573 | 114.21143 | 9153 ft | 270 kts | 310° |
| 2026-05-04 03:03 | 21.88833 | 114.19671 | 8945 ft | 269 kts | 307° |
| 2026-05-04 03:03 | 21.89864 | 114.18011 | 8739 ft | 267 kts | 298° |
| 2026-05-04 03:03 | 21.90766 | 114.16277 | 8649 ft | 266 kts | 297° |
| 2026-05-04 03:04 | 21.91653 | 114.14548 | 8648 ft | 267 kts | 297° |
| 2026-05-04 03:04 | 21.92557 | 114.12794 | 8375 ft | 267 kts | 297° |
| 2026-05-04 03:04 | 21.93461 | 114.11043 | 7907 ft | 264 kts | 297° |
| 2026-05-04 03:04 | 21.94344 | 114.09335 | 7438 ft | 262 kts | 297° |
| 2026-05-04 03:05 | 21.95228 | 114.07624 | 6956 ft | 262 kts | 297° |
| 2026-05-04 03:05 | 21.96120 | 114.05898 | 6474 ft | 264 kts | 297° |
| 2026-05-04 03:05 | 21.97004 | 114.04186 | 5993 ft | 264 kts | 297° |
| 2026-05-04 03:05 | 21.97900 | 114.02450 | 5506 ft | 262 kts | 297° |
| 2026-05-04 03:06 | 21.98772 | 114.00761 | 5087 ft | 260 kts | 298° |
| 2026-05-04 03:06 | 21.99651 | 113.99057 | 4816 ft | 258 kts | 298° |
| 2026-05-04 03:06 | 22.00520 | 113.97372 | 4537 ft | 257 kts | 298° |
| 2026-05-04 03:06 | 22.01395 | 113.95675 | 4259 ft | 256 kts | 299° |
| 2026-05-04 03:07 | 22.02253 | 113.94010 | 3935 ft | 257 kts | 300° |
| 2026-05-04 03:07 | 22.03116 | 113.92335 | 3641 ft | 256 kts | 300° |
| 2026-05-04 03:07 | 22.03980 | 113.90657 | 3348 ft | 256 kts | 300° |
| 2026-05-04 03:07 | 22.04851 | 113.88967 | 3055 ft | 255 kts | 301° |
| 2026-05-04 03:08 | 22.05705 | 113.87306 | 2788 ft | 254 kts | 301° |
| 2026-05-04 03:08 | 22.06568 | 113.85629 | 2503 ft | 253 kts | 301° |
| 2026-05-04 03:08 | 22.07414 | 113.83985 | 2230 ft | 252 kts | 302° |
| 2026-05-04 03:08 | 22.08268 | 113.82327 | 1956 ft | 251 kts | 302° |
| 2026-05-04 03:09 | 22.09109 | 113.80690 | 1699 ft | 249 kts | 302° |
| 2026-05-04 03:09 | 22.09936 | 113.79082 | 1516 ft | 245 kts | 302° |
| 2026-05-04 03:09 | 22.11001 | 113.77652 | 1484 ft | 238 kts | 326° |
| 2026-05-04 03:09 | 22.12382 | 113.76781 | 1490 ft | 224 kts | 335° |
| 2026-05-04 03:10 | 22.13747 | 113.76063 | 1496 ft | 213 kts | 337° |
| 2026-05-04 03:10 | 22.15082 | 113.75392 | 1495 ft | 209 kts | 338° |
| 2026-05-04 03:10 | 22.16410 | 113.74730 | 1494 ft | 209 kts | 338° |
| 2026-05-04 03:10 | 22.17737 | 113.74068 | 1496 ft | 209 kts | 338° |
| 2026-05-04 03:11 | 22.19069 | 113.73402 | 1499 ft | 209 kts | 338° |
| 2026-05-04 03:11 | 22.20385 | 113.72747 | 1499 ft | 210 kts | 338° |
| 2026-05-04 03:11 | 22.21725 | 113.72083 | 1489 ft | 209 kts | 341° |
| 2026-05-04 03:11 | 22.23149 | 113.71857 | 1485 ft | 204 kts | 8° |
| 2026-05-04 03:12 | 22.24409 | 113.72367 | 1480 ft | 187 kts | 34° |
| 2026-05-04 03:12 | 22.25430 | 113.73188 | 1490 ft | 177 kts | 38° |
| 2026-05-04 03:12 | 22.26373 | 113.74020 | 1499 ft | 175 kts | 40° |
| 2026-05-04 03:12 | 22.27288 | 113.74863 | 1490 ft | 168 kts | 40° |
| 2026-05-04 03:13 | 22.28077 | 113.75712 | 1474 ft | 156 kts | 59° |
| 2026-05-04 03:13 | 22.28469 | 113.76815 | 1496 ft | 158 kts | 70° |
| 2026-05-04 03:13 | 22.28804 | 113.77930 | 1508 ft | 155 kts | 68° |
| 2026-05-04 03:13 | 22.29170 | 113.79035 | 1500 ft | 157 kts | 68° |
| 2026-05-04 03:14 | 22.29530 | 113.80150 | 1488 ft | 154 kts | 68° |
| 2026-05-04 03:14 | 22.29890 | 113.81254 | 1327 ft | 156 kts | 68° |
| 2026-05-04 03:14 | 22.30247 | 113.82358 | 1125 ft | 156 kts | 68° |
| 2026-05-04 03:14 | 22.30608 | 113.83467 | 920 ft | 156 kts | 69° |
| 2026-05-04 03:15 | 22.30973 | 113.84569 | 719 ft | 156 kts | 68° |
| 2026-05-04 03:15 | 22.31331 | 113.85691 | 544 ft | 157 kts | 69° |
| 2026-05-04 03:15 | 22.31693 | 113.86797 | 358 ft | 158 kts | 68° |
| 2026-05-04 03:15 | 22.32058 | 113.87926 | 99 ft | 158 kts | 69° |
| 2026-05-04 03:16 | 22.32400 | 113.89010 | 17 ft | 141 kts | 67° |
| 2026-05-04 03:16 | 22.32687 | 113.89864 | 16 ft | 96 kts | 72° |
| 2026-05-04 03:16 | 22.32824 | 113.90344 | 16 ft | 43 kts | 88° |
| 2026-05-04 03:16 | 22.32785 | 113.90608 | 16 ft | 27 kts | 99° |
| 2026-05-04 03:17 | 22.32793 | 113.90784 | 16 ft | 16 kts | 102° |
| 2026-05-04 03:17 | 22.32741 | 113.90824 | 16 ft | 9 kts | 211° |
| 2026-05-04 03:17 | 22.32685 | 113.90710 | 16 ft | 26 kts | 251° |
| 2026-05-04 03:17 | 22.32626 | 113.90524 | 16 ft | 26 kts | 251° |
| 2026-05-04 03:18 | 22.32563 | 113.90411 | 15 ft | 17 kts | 190° |
| 2026-05-04 03:18 | 22.32388 | 113.90464 | 16 ft | 35 kts | 161° |
| 2026-05-04 03:18 | 22.32209 | 113.90530 | 17 ft | 24 kts | 162° |
| 2026-05-04 03:18 | 22.32054 | 113.90588 | 18 ft | 22 kts | 161° |
| 2026-05-04 03:19 | 22.31906 | 113.90643 | 20 ft | 22 kts | 160° |
| 2026-05-04 03:19 | 22.31764 | 113.90698 | 23 ft | 20 kts | 160° |
| 2026-05-04 03:19 | 22.31629 | 113.90749 | 25 ft | 18 kts | 142° |
| 2026-05-04 03:19 | 22.31628 | 113.90889 | 26 ft | 21 kts | 70° |
| 2026-05-04 03:20 | 22.31685 | 113.91063 | 26 ft | 28 kts | 71° |
| 2026-05-04 03:20 | 22.31749 | 113.91266 | 26 ft | 27 kts | 71° |
| 2026-05-04 03:20 | 22.31812 | 113.91459 | 26 ft | 26 kts | 72° |
| 2026-05-04 03:20 | 22.31874 | 113.91649 | 27 ft | 29 kts | 72° |
| 2026-05-04 03:21 | 22.31930 | 113.91830 | 27 ft | 26 kts | 70° |
| 2026-05-04 03:21 | 22.31993 | 113.92023 | 28 ft | 26 kts | 71° |
| 2026-05-04 03:21 | 22.32050 | 113.92203 | 27 ft | 25 kts | 71° |
| 2026-05-04 03:21 | 22.32107 | 113.92380 | 27 ft | 24 kts | 70° |
| 2026-05-04 03:22 | 22.32163 | 113.92556 | 28 ft | 24 kts | 73° |
| 2026-05-04 03:22 | 22.32182 | 113.92616 | 29 ft | 1 kts | 72° |
| 2026-05-04 03:22 | 22.32183 | 113.92677 | 29 ft | 15 kts | 121° |
| 2026-05-04 03:22 | 22.32054 | 113.92745 | 33 ft | 22 kts | 161° |
| 2026-05-04 03:23 | 22.31898 | 113.92804 | 37 ft | 22 kts | 159° |
| 2026-05-04 03:23 | 22.31763 | 113.92858 | 41 ft | 19 kts | 161° |
| 2026-05-04 03:23 | 22.31649 | 113.92899 | 44 ft | 15 kts | 161° |
| 2026-05-04 03:23 | 22.31557 | 113.92964 | 47 ft | 15 kts | 103° |
| 2026-05-04 03:24 | 22.31536 | 113.93033 | 47 ft | 8 kts | 135° |
| 2026-05-04 03:24 | 22.31491 | 113.93061 | 48 ft | 5 kts | 158° |
| 2026-05-04 03:24 | 22.31477 | 113.93066 | 48 ft | 1 kts | 159° |
| 2026-05-04 03:24 | 22.31474 | 113.93068 | 48 ft | 0 kts | 159° |